New! ScoreMeUp is now available on the App Store. Download the iOS app →

Minnesota Swimming Girls 10 & under - 50 Y Breast

These rankings show the swimmers' placement within their Local Swimming Committee (LSC).
They are based on the swimmer's personal best, their current age category, and team; and are calculated from all the meets results.
For each swimmer, you can find the swimmer's ranking, their best time, the corresponding time standard, as well as how much faster the swimmer needs to be to reach the next level. The last columns provide information about the event they achieved this personal best.

Swimmer Rankings

Ranking Name Time Age Standard to Next Standard Team Date Meet
401 Kiera Harrigan 59.13 9 B: 54.59 (+4.54s | 7.7%) Omni Otters Swim Club 11/22/2025 2025 MN OMNI Pentathlon Challenge
402 Stella Nielsen 59.24 10 B: 54.59 (+4.65s | 7.8%) Minnetonka Swim Club 03/07/2025 2025 MN MTKA Minnesota Regional Championship
403 Winnie Chernik 59.27 10 B: 54.59 (+4.68s | 7.9%) North Suburban Aquatic Club 02/01/2026 2026 MN NSAC Winter Invite Copied
404 Libby Lang 59.28 8 B: 54.59 (+4.69s | 7.9%) Winona Swim Club 03/27/2026 2026 MN RWSC Fall Winter Mini Meet Champs
405 Naomi Streib 59.50 8 B: 54.59 (+4.91s | 8.3%) Edina Swim Club 02/07/2026 2026 MN EDI February Saturday At The Races
406 Avery DeWalt 59.55 8 B: 54.59 (+4.96s | 8.3%) Riptide Swim Team 11/01/2025 2025 MN NOR Champ Belt Sprint Spec (Fall)
407 Callahan Hochhalter 59.62 9 B: 54.59 (+5.03s | 8.4%) Great Wolf Swim Team 01/24/2026 2026 MN Tuna Frozen Festival
408 Fiona Alcott 59.65 8 B: 54.59 (+5.06s | 8.5%) West Express Swim Team 02/27/2026 2026 MN WEST Minnesota Regional Championship
409 Vivian Acosta 59.66 10 B: 54.59 (+5.07s | 8.5%) Piranhas Swim Club 02/21/2026 2026 MN FOXJ MN Bronze Championship
410 Lasata Bajracharya 59.71 10 B: 54.59 (+5.12s | 8.6%) Tuna Swim Club 12/20/2025 2025 MN AQJT Holiday Invite
411 Matilda Tempero 59.73 9 B: 54.59 (+5.14s | 8.6%) Metro Marlins Swim Team 11/01/2025 2025 MN TUNA Turkey Trot
412 Rowyn Robinette 59.76 6 B: 54.59 (+5.17s | 8.7%) Northfield Swim Club 02/27/2026 2026 MN RSC Minnesota Regional Championship
413 Hattie Martin 59.84 9 B: 54.59 (+5.25s | 8.8%) Riptide Swim Team 11/08/2025 2025 MN FOXJ November Bronze
414 Luella Malone 1:00.00 9 B: 54.59 (+5.41s | 9.0%) Detroit Lakes 02/21/2026 2026 MN MONC MN Bronze Championship Copied
415 Anneli Rapkin 1:00.12 8 B: 54.59 (+5.53s | 9.2%) Omni Otters Swim Club 01/24/2026 2026 MN HAST JAN IMX
416 Mila Mulcahy 1:00.15 9 B: 54.59 (+5.56s | 9.2%) North Suburban Aquatic Club 02/01/2026 2026 MN NSAC Winter Invite Copied
417 Kaylee Barten 1:00.29 9 B: 54.59 (+5.70s | 9.5%) Foxjets Swim Team 02/21/2026 2026 MN FOXJ MN Bronze Championship
418 Madelyn Wise 1:00.29 10 B: 54.59 (+5.70s | 9.5%) South Metro Storm 02/14/2025 2025 MN RSC President S Day Meet
419 Charlotte Huibregtse 1:00.35 9 B: 54.59 (+5.76s | 9.5%) West Express Swim Team 11/21/2025 2025 MN STRM 4th Annual Movember Invite
420 Eliette Johnson 1:00.38 10 B: 54.59 (+5.79s | 9.6%) Edina Swim Club 11/01/2025 2025 MN EDI Invite
421 Emma Law 1:00.41 8 B: 54.59 (+5.82s | 9.6%) Hurricanes Swim Team 02/27/2026 2026 MN WEST Minnesota Regional Championship
422 Hannah Kotilinek 1:00.45 9 B: 54.59 (+5.86s | 9.7%) Wright County Wave Swim Club 05/22/2025 2025 MN WAVE A May Zing Minni Meet
423 Karis Craft 1:00.48 9 B: 54.59 (+5.89s | 9.7%) North Suburban Aquatic Club 02/01/2026 2026 MN NSAC Winter Invite Copied
424 Willow Flaherty 1:00.48 10 B: 54.59 (+5.89s | 9.7%) Unattached 06/11/2025 2025 MN FOXJ June Bronze
425 Riley Danielson 1:00.56 10 B: 54.59 (+5.97s | 9.9%) Red Wing Swim Club 11/01/2024 2024 MN RWSC Halloween Mini Meet
426 Brita Gossai 1:00.60 9 B: 54.59 (+6.01s | 9.9%) St Croix Swim Club 10/05/2024 2024 MN FOXJ October Bronze
427 Anna Floyd 1:00.70 10 B: 54.59 (+6.11s | 10.1%) Metro Marlins Swim Team 03/07/2025 2025 MN MAN Minnesota Regional Championship
428 Stella Diaz 1:00.74 10 B: 54.59 (+6.15s | 10.1%) Red Wing Swim Club 03/07/2025 2025 MN RSC Minnesota Regional Championship
429 Kinsley Carpenter 1:00.77 8 B: 54.59 (+6.18s | 10.2%) Minnetonka Swim Club 01/09/2026 2026 MN FOXJ Winter Classic
430 Rae Grabski 1:00.85 9 B: 54.59 (+6.26s | 10.3%) North Suburban Aquatic Club 02/01/2026 2026 MN NSAC Winter Invite Copied
431 Egwene Atwater 1:00.91 10 B: 54.59 (+6.32s | 10.4%) Tigersharks Swim Club 11/15/2025 2025 MN SHRK Tigersharks Thanksgiving Classic
432 Sadie Goeltz 1:00.92 9 B: 54.59 (+6.33s | 10.4%) River Falls Swim Club 02/14/2026 2026 MN RFSC Valentine S Crush Invite
433 Charlotte Nguyen 1:00.95 8 B: 54.59 (+6.36s | 10.4%) North Star Swim Team 01/25/2026 2026 MN HURR January Invitational
434 Leona Haasken 1:01.03 9 B: 54.59 (+6.44s | 10.6%) Lake Superior Swim Club 11/08/2025 2025 MN WEST Express Fall Invite Copied
435 Hildy Hoefer 1:01.08 10 B: 54.59 (+6.49s | 10.6%) Hurricanes Swim Team 02/14/2026 2026 MN HURR Winter Intrasquad
436 Margot Tuttle 1:01.15 10 B: 54.59 (+6.56s | 10.7%) Minnetonka Swim Club 11/08/2025 2025 MN WOLF HOWL AT THE MOON INVITE
437 Willow Flaherty 1:01.18 10 B: 54.59 (+6.59s | 10.8%) Foxjets Swim Team 02/21/2026 2026 MN FOXJ MN Bronze Championship
438 Louisa Gingo 1:01.22 9 B: 54.59 (+6.63s | 10.8%) Minneapolis Lake Monsters 02/01/2026 2026 MN STAR Last Chance Invite
439 Aiesha Belwal 1:01.27 9 B: 54.59 (+6.68s | 10.9%) Edina Swim Club 02/07/2026 2026 MN EDI February Saturday At The Races
440 Catherine Zhang 1:01.29 10 B: 54.59 (+6.70s | 10.9%) Rochester Swim Club 03/07/2025 2025 MN RSC Minnesota Regional Championship
441 Olivia Pease 1:01.42 8 B: 54.59 (+6.83s | 11.1%) Hurricanes Swim Team 10/26/2025 2025 MN SEMS Sharktober Invite
442 Amy Cui 1:01.44 10 B: 54.59 (+6.85s | 11.1%) Aquajets Swim Team 01/03/2026 2026 MN AQJT New Year Invite
443 Alma Klotz 1:01.45 9 B: 54.59 (+6.86s | 11.2%) Edina Swim Club 02/27/2026 2026 MN EDI Minnesota Regional Championship
444 Harper Peters 1:01.45 9 B: 54.59 (+6.86s | 11.2%) Metro Marlins Swim Team 02/21/2026 2026 MN FOXJ MN Bronze Championship
445 Harper Anderson 1:01.52 10 B: 54.59 (+6.93s | 11.3%) Minneapolis Lake Monsters 02/21/2026 2026 MN FOXJ MN Bronze Championship
446 Elliot Woods 1:01.53 10 B: 54.59 (+6.94s | 11.3%) Central Minnesota Aquatics 02/07/2026 2026 MN SDVL Sweet Heart Classic
447 Rosalie Maly 1:01.55 10 B: 54.59 (+6.96s | 11.3%) Hurricanes Swim Team 02/22/2025 2025 MN HURR Winter Intrasquad
448 Willa Bliss 1:01.68 8 B: 54.59 (+7.09s | 11.5%) Minnetonka Swim Club 02/27/2026 2026 MN MTKA Minnesota Regional Championship
449 Emily Hosfield 1:01.69 10 B: 54.59 (+7.10s | 11.5%) Hurricanes Swim Team 10/26/2025 2025 MN SEMS Sharktober Invite
450 Aria Eng 1:01.70 10 B: 54.59 (+7.11s | 11.5%) Minnetonka Swim Club 02/02/2025 2025 MN NSAC Winter Invite

Disclaimer: This Website is not affiliated with USA Swimming or any Local Swim Committee. The rankings and times displayed on this website are unofficial and should not be viewed as such. We update our information regularly, but we cannot guarantee that the data is accurate, timely, or complete. The only purpose of this website is entertainment. None of the information here should be used for university admission applications.